createdAt,value
2018-09-12T00:00:17.859Z,65.80
2018-09-12T00:02:45.944Z,68.64
2018-09-12T00:05:14.551Z,68.01
2018-09-12T00:07:42.435Z,69.25
2018-09-12T00:10:11.348Z,66.66
2018-09-12T00:12:42.756Z,66.68
2018-09-12T00:15:10.744Z,69.85
2018-09-12T00:17:38.709Z,70.87
2018-09-12T00:20:06.737Z,71.13
2018-09-12T00:22:34.675Z,70.06
2018-09-12T00:25:02.881Z,69.14
2018-09-12T00:27:30.849Z,70.55
2018-09-12T00:29:58.807Z,71.30
2018-09-12T00:32:26.702Z,72.60
2018-09-12T00:34:54.574Z,73.38
2018-09-12T00:37:22.578Z,73.46
2018-09-12T00:39:50.556Z,74.17
2018-09-12T00:42:18.513Z,73.83
2018-09-12T00:44:46.635Z,74.30
2018-09-12T00:47:14.631Z,75.07
2018-09-12T00:49:42.846Z,75.13
2018-09-12T00:52:10.804Z,74.62
2018-09-12T00:54:39.212Z,74.74
2018-09-12T00:57:07.202Z,75.10
2018-09-12T00:59:35.170Z,74.69
2018-09-12T01:02:03.091Z,74.78
2018-09-12T01:04:31.241Z,74.67
2018-09-12T01:06:59.267Z,74.36
2018-09-12T01:09:27.238Z,75.08
2018-09-12T01:11:55.248Z,75.86
2018-09-12T01:14:23.393Z,75.96
2018-09-12T01:16:54.342Z,76.16
2018-09-12T01:19:22.348Z,76.86
2018-09-12T01:21:50.379Z,76.75
2018-09-12T01:24:18.379Z,75.86
2018-09-12T01:26:46.494Z,75.79
2018-09-12T01:29:14.774Z,76.13
2018-09-12T01:31:42.886Z,76.65
2018-09-12T01:34:10.880Z,76.53
2018-09-12T01:36:39.196Z,76.00
2018-09-12T01:39:08.194Z,76.88
2018-09-12T01:41:36.445Z,77.75
2018-09-12T01:44:04.440Z,77.97
2018-09-12T01:46:32.603Z,77.50
2018-09-12T01:49:01.114Z,76.14
2018-09-12T01:51:29.131Z,78.31
2018-09-12T01:53:57.037Z,78.41
2018-09-12T01:56:25.008Z,78.15
2018-09-12T01:58:53.282Z,77.19
2018-09-12T02:01:21.280Z,77.55
2018-09-12T02:03:49.284Z,78.13
2018-09-12T02:06:17.184Z,77.93
2018-09-12T02:08:45.136Z,77.39
2018-09-12T02:11:13.059Z,76.42
2018-09-12T02:13:41.183Z,77.34
2018-09-12T02:16:09.202Z,76.67
2018-09-12T02:18:37.434Z,77.20
2018-09-12T02:21:05.387Z,76.13
2018-09-12T02:23:33.413Z,74.52
2018-09-12T02:26:01.293Z,73.60
2018-09-12T02:28:29.201Z,73.70
2018-09-12T02:30:57.259Z,73.03
2018-09-12T02:33:25.246Z,72.96
2018-09-12T02:35:58.674Z,72.84
2018-09-12T02:38:26.558Z,73.37
2018-09-12T02:40:54.624Z,73.87
2018-09-12T02:43:22.576Z,73.17
2018-09-12T02:45:50.514Z,72.93
2018-09-12T02:48:18.592Z,72.33
2018-09-12T02:50:46.550Z,70.64
2018-09-12T02:53:14.390Z,70.50
2018-09-12T02:55:42.324Z,69.99
2018-09-12T02:58:10.271Z,69.56
2018-09-12T03:00:38.166Z,69.49
2018-09-12T03:03:06.573Z,69.93
2018-09-12T03:05:34.614Z,69.30
2018-09-12T03:08:02.635Z,70.15
2018-09-12T03:10:30.969Z,71.01
2018-09-12T03:12:58.970Z,72.19
2018-09-12T03:15:26.956Z,72.73
2018-09-12T03:17:54.995Z,74.25
2018-09-12T03:20:23.038Z,74.48
2018-09-12T03:22:50.934Z,74.79
2018-09-12T03:25:18.859Z,74.52
2018-09-12T03:27:46.730Z,73.62
2018-09-12T03:30:14.727Z,73.35
2018-09-12T03:32:42.734Z,72.95
2018-09-12T03:35:10.684Z,72.42
2018-09-12T03:37:38.560Z,72.37
2018-09-12T03:40:06.841Z,73.26
2018-09-12T03:42:34.803Z,72.87
2018-09-12T03:45:02.859Z,74.30
2018-09-12T03:47:30.799Z,74.70
2018-09-12T03:49:58.722Z,74.81
2018-09-12T03:52:26.788Z,75.27
2018-09-12T03:54:54.721Z,76.04
2018-09-12T03:57:22.643Z,77.14
2018-09-12T03:59:50.659Z,78.04
2018-09-12T04:02:18.531Z,77.95
2018-09-12T04:04:46.566Z,78.82
2018-09-12T04:07:14.486Z,78.56
2018-09-12T04:09:42.674Z,78.19
2018-09-12T04:12:10.575Z,77.19
2018-09-12T04:14:38.468Z,75.20
2018-09-12T04:17:06.441Z,74.16
2018-09-12T04:19:34.941Z,75.40
2018-09-12T04:22:03.048Z,75.06
2018-09-12T04:24:31.161Z,74.24
2018-09-12T04:26:59.202Z,73.21
2018-09-12T04:29:27.106Z,72.78
2018-09-12T04:31:55.056Z,73.43
2018-09-12T04:34:23.026Z,72.27
2018-09-12T04:36:51.303Z,72.96
2018-09-12T04:39:19.266Z,72.18
2018-09-12T04:41:49.393Z,70.62
2018-09-12T04:44:17.416Z,71.76
2018-09-12T04:46:45.549Z,72.63
2018-09-12T04:49:13.728Z,72.33
2018-09-12T04:51:42.110Z,72.43
2018-09-12T04:54:10.024Z,73.80
2018-09-12T04:56:38.986Z,74.29
2018-09-12T04:59:06.997Z,75.25
2018-09-12T05:01:34.901Z,75.18
2018-09-12T05:04:02.901Z,74.91
2018-09-12T05:06:30.922Z,74.81
2018-09-12T05:08:58.892Z,75.89
2018-09-12T05:11:27.105Z,74.69
2018-09-12T05:13:55.075Z,74.40
2018-09-12T05:16:23.073Z,74.10
2018-09-12T05:18:51.046Z,73.46
2018-09-12T05:21:19.054Z,72.16
2018-09-12T05:23:46.994Z,71.70
2018-09-12T05:26:14.869Z,70.83
2018-09-12T05:28:42.842Z,70.56
2018-09-12T05:31:10.898Z,69.26
2018-09-12T05:33:38.843Z,68.77
2018-09-12T05:36:07.023Z,69.90
2018-09-12T05:38:34.942Z,69.21
2018-09-12T05:41:02.946Z,69.05
2018-09-12T05:43:30.854Z,69.27
2018-09-12T05:45:58.789Z,69.80
2018-09-12T05:48:26.781Z,69.18
2018-09-12T05:50:54.751Z,68.89
2018-09-12T05:53:22.883Z,68.26
2018-09-12T05:55:50.949Z,67.51
2018-09-12T05:58:18.911Z,68.38
2018-09-12T06:00:47.166Z,68.61
2018-09-12T06:03:15.349Z,69.01
2018-09-12T06:05:44.782Z,69.47
2018-09-12T06:08:15.496Z,69.71
2018-09-12T06:10:43.660Z,66.27
2018-09-12T06:13:11.653Z,63.72
2018-09-12T06:15:39.880Z,62.86
2018-09-12T06:18:07.832Z,65.22
2018-09-12T06:20:36.081Z,67.62
2018-09-12T06:23:03.983Z,67.34
2018-09-12T06:25:31.944Z,66.06
2018-09-12T06:27:59.986Z,65.08
2018-09-12T06:30:28.122Z,64.24
2018-09-12T06:32:56.166Z,63.28
2018-09-12T06:35:24.180Z,63.34
2018-09-12T06:37:52.266Z,62.24
2018-09-12T06:40:20.454Z,62.58
2018-09-12T06:42:48.561Z,61.44
2018-09-12T06:45:16.688Z,57.29
2018-09-12T06:47:45.059Z,58.45
2018-09-12T06:50:12.985Z,56.18
2018-09-12T06:52:40.966Z,53.26
2018-09-12T06:55:09.027Z,51.37
2018-09-12T06:57:37.176Z,47.99
2018-09-12T07:00:05.536Z,49.91
2018-09-12T07:02:33.668Z,48.46
2018-09-12T07:05:01.625Z,48.30
2018-09-12T07:07:29.729Z,47.00
2018-09-12T07:09:57.606Z,47.34
2018-09-12T07:12:25.562Z,46.24
2018-09-12T07:14:55.134Z,44.18
2018-09-12T07:17:23.110Z,44.43
2018-09-12T07:19:51.178Z,39.94
2018-09-12T07:22:19.371Z,36.73
2018-09-12T07:24:47.549Z,37.04
2018-09-12T07:27:15.418Z,36.85
2018-09-12T07:29:44.063Z,35.13
2018-09-12T07:32:12.560Z,34.66
2018-09-12T07:34:40.763Z,34.27
2018-09-12T07:37:09.572Z,32.44
2018-09-12T07:39:43.140Z,31.54
2018-09-12T07:42:11.594Z,31.33
2018-09-12T07:44:41.036Z,30.96
2018-09-12T07:47:09.714Z,30.74
2018-09-12T07:49:38.033Z,32.17
2018-09-12T07:52:06.030Z,31.86
2018-09-12T07:54:35.094Z,32.93
2018-09-12T07:57:03.684Z,33.46
2018-09-12T07:59:38.715Z,35.85
2018-09-12T08:02:07.642Z,38.20
2018-09-12T08:04:35.583Z,38.76
2018-09-12T08:07:03.980Z,39.94
2018-09-12T08:09:31.926Z,39.92
2018-09-12T08:12:00.122Z,40.32
2018-09-12T08:14:28.161Z,38.63
2018-09-12T08:16:56.310Z,37.90
2018-09-12T08:19:24.599Z,37.71
2018-09-12T08:21:52.665Z,36.65
2018-09-12T08:24:20.848Z,36.91
2018-09-12T08:26:48.840Z,35.55
2018-09-12T08:29:16.725Z,34.85
2018-09-12T08:31:44.916Z,36.11
2018-09-12T08:34:12.925Z,36.57
2018-09-12T08:36:41.163Z,34.79
2018-09-12T08:39:09.502Z,36.48
2018-09-12T08:41:37.566Z,36.46
2018-09-12T08:44:05.983Z,35.45
2018-09-12T08:46:34.211Z,35.27
2018-09-12T08:49:02.265Z,36.54
2018-09-12T08:51:30.294Z,35.17
2018-09-12T08:53:58.409Z,36.02
2018-09-12T08:56:26.606Z,35.88
2018-09-12T08:58:54.951Z,35.63
2018-09-12T09:01:22.976Z,34.40
2018-09-12T09:03:51.133Z,32.47
2018-09-12T09:06:19.297Z,33.92
2018-09-12T09:08:47.416Z,32.89
2018-09-12T09:11:15.328Z,32.98
2018-09-12T09:13:43.437Z,30.95
2018-09-12T09:16:11.503Z,31.07
2018-09-12T09:18:39.622Z,31.32
2018-09-12T09:21:07.919Z,31.00
2018-09-12T09:23:35.946Z,30.28
2018-09-12T09:26:03.983Z,30.09
2018-09-12T09:28:32.148Z,32.25
2018-09-12T09:31:00.236Z,32.91
2018-09-12T09:33:28.334Z,32.76
2018-09-12T09:35:56.504Z,33.49
2018-09-12T09:38:24.485Z,33.88
2018-09-12T09:40:52.577Z,35.04
2018-09-12T09:43:20.645Z,35.11
2018-09-12T09:45:48.690Z,35.39
2018-09-12T09:48:16.774Z,34.54
2018-09-12T09:50:45.763Z,34.02
2018-09-12T09:53:13.744Z,32.48
2018-09-12T09:55:41.826Z,31.52
2018-09-12T09:58:09.874Z,30.42
2018-09-12T10:00:43.246Z,29.80
2018-09-12T10:03:17.545Z,29.66
2018-09-12T10:05:51.240Z,30.37
2018-09-12T10:08:24.524Z,32.44
2018-09-12T10:11:01.434Z,32.10
2018-09-12T10:13:29.409Z,32.91
2018-09-12T10:15:58.296Z,31.56
2018-09-12T10:18:25.886Z,31.55
2018-09-12T10:20:54.008Z,31.18
2018-09-12T10:23:22.969Z,31.80
2018-09-12T10:25:51.533Z,31.54
2018-09-12T10:28:19.658Z,31.37
2018-09-12T10:30:47.895Z,31.94
2018-09-12T10:33:16.059Z,32.56
2018-09-12T10:35:44.070Z,33.07
2018-09-12T10:38:12.103Z,32.08
2018-09-12T10:40:40.063Z,31.87
2018-09-12T10:43:10.479Z,31.57
2018-09-12T10:45:38.754Z,32.51
2018-09-12T10:48:09.207Z,32.27
2018-09-12T10:50:37.719Z,32.74
2018-09-12T10:53:08.350Z,32.92
2018-09-12T10:55:36.466Z,32.02
2018-09-12T10:58:04.468Z,31.14
2018-09-12T11:00:32.512Z,31.85
2018-09-12T11:03:00.547Z,31.22
2018-09-12T11:05:28.621Z,31.82
2018-09-12T11:07:56.627Z,32.36
2018-09-12T11:10:24.640Z,32.50
2018-09-12T11:12:52.520Z,31.24
2018-09-12T11:15:20.809Z,30.99
2018-09-12T11:17:48.798Z,31.16
2018-09-12T11:20:17.814Z,31.50
2018-09-12T11:22:45.768Z,31.66
2018-09-12T11:25:13.754Z,31.29
2018-09-12T11:27:41.784Z,31.87
2018-09-12T11:30:09.812Z,32.00
2018-09-12T11:32:37.830Z,32.88
2018-09-12T11:35:06.292Z,33.74
2018-09-12T11:37:34.228Z,33.83
2018-09-12T11:40:02.264Z,33.45
2018-09-12T11:42:31.202Z,33.81
2018-09-12T11:44:59.248Z,33.85
2018-09-12T11:47:27.251Z,32.67
2018-09-12T11:49:59.738Z,33.03
2018-09-12T11:52:27.987Z,33.08
2018-09-12T11:54:56.656Z,32.52
2018-09-12T11:57:24.590Z,32.84
2018-09-12T11:59:52.474Z,33.56
2018-09-12T12:02:20.787Z,32.85
2018-09-12T12:04:49.304Z,32.34
2018-09-12T12:07:17.289Z,32.84
2018-09-12T12:09:45.722Z,32.86
2018-09-12T12:12:13.811Z,32.89
2018-09-12T12:14:42.195Z,32.03
2018-09-12T12:17:10.179Z,30.88
2018-09-12T12:19:38.084Z,31.42
2018-09-12T12:22:06.101Z,30.90
2018-09-12T12:24:33.999Z,31.14
2018-09-12T12:27:02.729Z,31.98
2018-09-12T12:29:30.814Z,32.74
2018-09-12T12:31:59.024Z,31.66
2018-09-12T12:34:27.050Z,31.28
2018-09-12T12:36:54.927Z,31.61
2018-09-12T12:39:23.013Z,31.80
2018-09-12T12:41:50.994Z,32.30
2018-09-12T12:44:19.007Z,31.87
2018-09-12T12:46:47.266Z,31.86
2018-09-12T12:49:15.171Z,31.77
2018-09-12T12:51:43.164Z,32.30
2018-09-12T12:54:11.112Z,32.75
2018-09-12T12:56:39.266Z,32.61
2018-09-12T12:59:14.519Z,32.46
2018-09-12T13:01:48.938Z,32.79
2018-09-12T13:04:17.055Z,32.18
2018-09-12T13:06:45.210Z,31.46
2018-09-12T13:09:13.587Z,31.65
2018-09-12T13:11:41.662Z,31.86
2018-09-12T13:14:16.544Z,32.24
2018-09-12T13:16:47.513Z,31.11
2018-09-12T13:19:15.585Z,31.54
2018-09-12T13:21:48.353Z,30.60
2018-09-12T13:24:16.481Z,31.55
2018-09-12T13:26:44.473Z,32.62
2018-09-12T13:29:12.494Z,32.34
2018-09-12T13:31:41.067Z,32.53
2018-09-12T13:34:09.083Z,32.33
2018-09-12T13:36:37.161Z,32.03
2018-09-12T13:39:09.527Z,32.55
2018-09-12T13:41:37.556Z,32.03
2018-09-12T13:44:05.472Z,32.03
2018-09-12T13:46:33.500Z,31.88
2018-09-12T13:49:01.453Z,32.29
2018-09-12T13:51:29.858Z,32.22
2018-09-12T13:53:57.921Z,32.92
2018-09-12T13:56:25.858Z,33.64
2018-09-12T13:58:53.850Z,33.05
2018-09-12T14:01:21.982Z,33.21
2018-09-12T14:03:49.883Z,33.12
2018-09-12T14:06:18.052Z,32.07
2018-09-12T14:08:45.998Z,33.80
2018-09-12T14:11:14.784Z,33.83
2018-09-12T14:13:42.715Z,33.48
2018-09-12T14:16:10.648Z,33.55
2018-09-12T14:18:38.697Z,33.37
2018-09-12T14:21:06.677Z,32.51
2018-09-12T14:23:34.502Z,32.46
2018-09-12T14:26:02.734Z,32.09
2018-09-12T14:28:30.642Z,31.86
2018-09-12T14:30:58.638Z,32.01
2018-09-12T14:33:27.262Z,32.09
2018-09-12T14:35:55.308Z,32.38
2018-09-12T14:38:23.322Z,33.04
2018-09-12T14:40:51.314Z,32.67
2018-09-12T14:43:19.498Z,32.93
2018-09-12T14:45:48.219Z,32.88
2018-09-12T14:48:16.388Z,32.03
2018-09-12T14:50:46.191Z,32.33
2018-09-12T14:53:14.100Z,33.07
2018-09-12T14:55:42.400Z,33.93
2018-09-12T14:58:10.418Z,33.16
2018-09-12T15:00:38.494Z,33.86
2018-09-12T15:03:08.708Z,34.69
2018-09-12T15:05:38.890Z,34.47
2018-09-12T15:08:06.881Z,35.21
2018-09-12T15:10:34.863Z,34.56
2018-09-12T15:13:02.839Z,35.27
2018-09-12T15:15:31.940Z,34.90
2018-09-12T15:17:59.970Z,35.32
2018-09-12T15:20:27.926Z,34.57
2018-09-12T15:22:55.975Z,34.61
2018-09-12T15:25:23.957Z,34.68
2018-09-12T15:27:52.368Z,34.00
2018-09-12T15:30:20.368Z,34.17
2018-09-12T15:32:48.462Z,34.19
2018-09-12T15:35:16.528Z,34.30
2018-09-12T15:37:44.526Z,33.83
2018-09-12T15:40:14.715Z,33.82
2018-09-12T15:42:44.768Z,34.38
2018-09-12T15:45:12.778Z,34.40
2018-09-12T15:47:43.816Z,34.83
2018-09-12T15:50:14.417Z,34.72
2018-09-12T15:52:43.226Z,34.48
2018-09-12T15:55:11.163Z,35.15
2018-09-12T15:57:39.265Z,35.92
2018-09-12T16:00:07.374Z,35.90
2018-09-12T16:02:35.280Z,36.44
2018-09-12T16:05:03.385Z,36.44
2018-09-12T16:07:31.233Z,36.78
2018-09-12T16:09:59.430Z,36.72
2018-09-12T16:12:27.620Z,36.80
2018-09-12T16:14:56.470Z,37.13
2018-09-12T16:17:24.497Z,37.19
2018-09-12T16:20:25.447Z,37.26
2018-09-12T16:22:54.141Z,37.73
2018-09-12T16:25:25.269Z,37.58
2018-09-12T16:27:53.305Z,37.59
2018-09-12T16:30:21.341Z,38.21
2018-09-12T16:32:49.349Z,38.38
2018-09-12T16:35:17.366Z,39.11
2018-09-12T16:37:45.320Z,38.75
2018-09-12T16:40:18.224Z,39.14
2018-09-12T16:42:47.999Z,38.93
2018-09-12T16:45:17.891Z,39.71
2018-09-12T16:47:45.914Z,39.79
2018-09-12T16:50:16.997Z,39.07
2018-09-12T16:52:46.054Z,38.85
2018-09-12T16:55:15.396Z,38.09
2018-09-12T16:57:45.232Z,38.66
2018-09-12T17:02:58.017Z,39.39
2018-09-12T17:05:26.885Z,39.79
2018-09-12T17:07:54.872Z,40.02
2018-09-12T17:10:24.243Z,40.62
2018-09-12T17:12:53.335Z,40.05
2018-09-12T17:15:27.362Z,40.31
2018-09-12T17:17:55.454Z,40.38
2018-09-12T17:20:30.672Z,40.44
2018-09-12T17:22:58.846Z,40.26
2018-09-12T17:25:29.258Z,40.49
2018-09-12T17:28:03.380Z,41.10
2018-09-12T17:30:35.417Z,41.22
2018-09-12T17:33:05.551Z,41.07
2018-09-12T17:35:33.942Z,40.92
2018-09-12T17:38:43.219Z,41.13
2018-09-12T17:41:12.053Z,41.88
2018-09-12T17:43:42.442Z,41.85
2018-09-12T17:46:11.973Z,42.22
2018-09-12T17:52:02.346Z,43.06
2018-09-12T17:54:33.272Z,43.55
2018-09-12T17:57:03.430Z,42.90
2018-09-12T17:59:42.984Z,43.61
2018-09-12T18:02:21.968Z,43.70
2018-09-12T18:04:50.856Z,44.59
2018-09-12T18:07:51.654Z,44.78
2018-09-12T18:10:20.542Z,44.81
2018-09-12T18:12:48.651Z,44.15
2018-09-12T18:15:16.860Z,44.71
2018-09-12T18:17:45.046Z,44.73
2018-09-12T18:20:13.383Z,44.96
2018-09-12T18:22:42.928Z,45.37
2018-09-12T18:25:12.230Z,46.03
2018-09-12T18:27:40.310Z,46.39
2018-09-12T18:30:08.896Z,47.02
2018-09-12T18:32:37.403Z,47.23
2018-09-12T18:35:09.041Z,47.49
2018-09-12T18:37:41.589Z,48.15
2018-09-12T18:40:10.919Z,48.10
2018-09-12T18:42:39.126Z,47.55
2018-09-12T18:45:11.120Z,47.87
2018-09-12T18:50:23.290Z,47.00
2018-09-12T18:52:55.429Z,46.91
2018-09-12T18:55:24.744Z,46.29
2018-09-12T18:57:52.704Z,46.78
2018-09-12T19:00:21.224Z,46.20
2018-09-12T19:02:49.196Z,45.87
2018-09-12T19:05:17.057Z,46.05
2018-09-12T19:07:45.086Z,45.96
2018-09-12T19:10:13.143Z,45.75
2018-09-12T19:12:41.061Z,46.50
2018-09-12T19:15:09.012Z,45.37
2018-09-12T19:17:37.009Z,45.22
2018-09-12T19:20:05.263Z,46.04
2018-09-12T19:22:33.238Z,45.79
2018-09-12T19:25:01.202Z,45.53
2018-09-12T19:27:29.184Z,45.85
2018-09-12T19:29:57.188Z,45.24
2018-09-12T19:32:26.214Z,45.15
2018-09-12T19:34:54.257Z,45.22
2018-09-12T19:37:22.448Z,44.91
2018-09-12T19:40:04.347Z,44.98
2018-09-12T19:42:32.715Z,44.96
2018-09-12T19:45:00.711Z,45.57
2018-09-12T19:47:28.570Z,45.89
2018-09-12T19:49:56.571Z,46.49
2018-09-12T19:52:24.601Z,47.38
2018-09-12T19:54:52.664Z,47.41
2018-09-12T19:57:20.754Z,48.37
2018-09-12T19:59:48.998Z,48.75
2018-09-12T20:02:32.658Z,49.14
2018-09-12T20:05:00.928Z,49.58
2018-09-12T20:07:30.355Z,49.63
2018-09-12T20:09:58.525Z,48.93
2018-09-12T20:12:27.192Z,48.50
2018-09-12T20:14:55.294Z,48.80
2018-09-12T20:17:23.359Z,48.67
2018-09-12T20:19:51.408Z,48.69
2018-09-12T20:22:19.548Z,49.22
2018-09-12T20:24:47.836Z,49.75
2018-09-12T20:27:15.940Z,49.47
2018-09-12T20:29:44.787Z,49.30
2018-09-12T20:32:12.781Z,50.77
2018-09-12T20:34:41.312Z,51.37
2018-09-12T20:37:10.126Z,51.40
2018-09-12T20:39:38.245Z,50.64
2018-09-12T20:42:06.279Z,51.12
2018-09-12T20:44:34.284Z,51.82
2018-09-12T20:47:02.186Z,51.96
2018-09-12T20:49:30.027Z,52.49
2018-09-12T20:51:57.958Z,52.51
2018-09-12T20:54:25.890Z,52.11
2018-09-12T20:56:53.914Z,53.00
2018-09-12T20:59:21.881Z,53.51
2018-09-12T21:01:49.821Z,53.04
2018-09-12T21:04:17.805Z,53.55
2018-09-12T21:06:45.766Z,53.46
2018-09-12T21:09:20.258Z,54.69
2018-09-12T21:11:48.171Z,56.10
2018-09-12T21:14:16.325Z,54.58
2018-09-12T21:16:44.348Z,55.43
2018-09-12T21:19:12.314Z,54.42
2018-09-12T21:21:40.315Z,54.06
2018-09-12T21:24:08.189Z,54.87
2018-09-12T21:26:36.239Z,55.07
2018-09-12T21:29:04.193Z,55.40
2018-09-12T21:31:32.070Z,56.55
2018-09-12T21:34:00.165Z,56.42
2018-09-12T21:36:28.092Z,56.68
2018-09-12T21:38:56.015Z,56.71
2018-09-12T21:41:23.984Z,58.05
2018-09-12T21:43:51.875Z,57.93
2018-09-12T21:46:21.009Z,57.27
2018-09-12T21:48:48.929Z,58.21
2018-09-12T21:51:16.889Z,57.58
2018-09-12T21:53:44.922Z,58.10
2018-09-12T21:56:12.863Z,57.54
2018-09-12T21:58:40.805Z,57.70
2018-09-12T22:01:08.747Z,57.86
2018-09-12T22:03:36.623Z,58.94
2018-09-12T22:06:04.693Z,59.27
2018-09-12T22:08:32.611Z,58.65
2018-09-12T22:11:00.575Z,58.71
2018-09-12T22:13:28.541Z,58.55
2018-09-12T22:15:56.479Z,58.80
2018-09-12T22:18:24.415Z,58.67
2018-09-12T22:20:52.446Z,57.79
2018-09-12T22:23:20.405Z,57.90
2018-09-12T22:25:48.370Z,58.45
2018-09-12T22:28:16.295Z,57.72
2018-09-12T22:30:44.542Z,57.15
2018-09-12T22:33:12.478Z,57.15
2018-09-12T22:35:41.729Z,56.13
2018-09-12T22:38:09.672Z,56.23
2018-09-12T22:40:37.596Z,56.18
2018-09-12T22:43:05.642Z,56.58
2018-09-12T22:45:33.578Z,55.47
2018-09-12T22:48:01.599Z,55.49
2018-09-12T22:50:29.543Z,55.79
2018-09-12T22:52:57.459Z,56.12
2018-09-12T22:55:25.376Z,56.26
2018-09-12T22:57:53.463Z,56.83
2018-09-12T23:00:21.773Z,57.10
2018-09-12T23:02:49.814Z,57.65
2018-09-12T23:05:18.059Z,58.47
2018-09-12T23:07:46.025Z,57.88
2018-09-12T23:10:13.945Z,58.24
2018-09-12T23:12:41.885Z,58.89
2018-09-12T23:15:09.821Z,59.81
2018-09-12T23:17:37.797Z,59.54
2018-09-12T23:20:06.113Z,59.58
2018-09-12T23:22:34.063Z,60.07
2018-09-12T23:25:02.151Z,60.00
2018-09-12T23:27:30.271Z,60.03
2018-09-12T23:29:58.125Z,60.69
2018-09-12T23:32:26.045Z,60.56
2018-09-12T23:34:54.162Z,59.98
2018-09-12T23:37:22.097Z,60.66
2018-09-12T23:39:50.194Z,61.26
2018-09-12T23:42:18.193Z,60.84
2018-09-12T23:44:46.532Z,61.49
2018-09-12T23:47:14.502Z,60.18
2018-09-12T23:49:42.676Z,60.79
2018-09-12T23:52:10.709Z,61.51
2018-09-12T23:54:39.599Z,60.65
2018-09-12T23:57:07.530Z,60.48
2018-09-12T23:59:35.463Z,60.19
